Time;durP1;ratioP1;P1;durP2;ratioP2;P2;SDS_P1;SDS_P2;PMS_P1;PMS_P2;Temp;Humidity;BMP_temperature;BMP_pressure;BME280_temperature;BME280_humidity;BME280_pressure;Samples;Min_cycle;Max_cycle;Signal;HPM_P1;HPM_P2
2021/09/05 00:01:20;;;;;;;;;30.25;29.75;;;;;22.73;79.84;101266.72;5100146;27;46075;-58
2021/09/05 00:03:46;;;;;;;;;36.25;33.25;;;;;22.71;79.98;101266.81;5081735;27;45218;-58
2021/09/05 00:06:11;;;;;;;;;33.00;30.25;;;;;22.68;80.37;101268.84;5099800;27;46103;-59
2021/09/05 00:08:38;;;;;;;;;33.75;32.00;;;;;22.66;80.22;101258.34;5099584;27;45600;-57
2021/09/05 00:11:10;;;;;;;;;38.50;32.25;;;;;22.65;80.59;101256.66;5079612;27;45695;-57
2021/09/05 00:13:39;;;;;;;;;34.50;30.50;;;;;22.66;80.64;101255.72;5100349;27;45272;-57
2021/09/05 00:16:04;;;;;;;;;43.25;33.75;;;;;22.67;80.39;101257.41;5100265;27;45256;-57
2021/09/05 00:18:29;;;;;;;;;45.25;34.75;;;;;22.67;81.17;101257.41;5100324;27;45314;-57
2021/09/05 00:20:55;;;;;;;;;37.50;33.00;;;;;22.66;80.49;101255.72;5100148;27;45374;-57
2021/09/05 00:23:20;;;;;;;;;47.25;34.75;;;;;22.65;80.21;101263.75;5100265;27;45256;-58
2021/09/05 00:25:45;;;;;;;;;40.50;33.75;;;;;22.59;80.73;101262.38;5084734;27;45245;-57
2021/09/05 00:28:13;;;;;;;;;42.50;35.75;;;;;22.54;80.72;101261.84;5103757;27;45334;-57
2021/09/05 00:30:41;;;;;;;;;38.75;31.00;;;;;22.51;80.91;101264.72;5103406;27;46773;-57
2021/09/05 00:33:09;;;;;;;;;46.75;36.00;;;;;22.50;81.22;101268.31;5103749;27;45232;-58
2021/09/05 00:35:35;;;;;;;;;43.50;34.00;;;;;22.52;81.24;101271.69;5102076;27;45378;-59
2021/09/05 00:38:03;;;;;;;;;35.25;30.50;;;;;22.53;80.86;101264.59;5103530;27;45352;-59
2021/09/05 00:40:29;;;;;;;;;40.25;34.25;;;;;22.56;81.13;101267.03;5103013;27;45417;-58
2021/09/05 00:42:54;;;;;;;;;35.00;33.00;;;;;22.54;80.84;101275.09;5103674;27;45277;-59
2021/09/05 00:45:20;;;;;;;;;38.75;30.25;;;;;22.55;81.24;101271.47;5103232;27;45312;-56
2021/09/05 00:47:45;;;;;;;;;36.00;32.25;;;;;22.55;81.02;101274.13;5103317;27;45472;-58
2021/09/05 00:50:14;;;;;;;;;48.00;35.50;;;;;22.53;81.53;101273.41;5102801;27;46423;-58
2021/09/05 00:52:40;;;;;;;;;48.00;36.50;;;;;22.51;81.82;101274.47;5103179;27;45850;-57
2021/09/05 00:55:10;;;;;;;;;46.25;35.50;;;;;22.52;81.89;101271.69;5103138;27;45248;-59
2021/09/05 00:57:35;;;;;;;;;43.25;35.00;;;;;22.54;82.09;101264.50;5102942;27;45382;-59
2021/09/05 01:00:02;;;;;;;;;32.75;29.75;;;;;22.52;82.24;101261.09;5102779;27;46093;-60
2021/09/05 01:02:30;;;;;;;;;41.75;33.50;;;;;22.54;82.37;101259.19;5102925;27;45778;-59
2021/09/05 01:04:55;;;;;;;;;39.75;33.25;;;;;22.53;82.31;101254.84;5102769;27;45488;-59
2021/09/05 01:07:24;;;;;;;;;43.25;36.75;;;;;22.50;82.41;101260.38;5102856;27;45428;-59
2021/09/05 01:09:49;;;;;;;;;42.50;36.25;;;;;22.50;82.16;101267.47;5102123;27;45662;-59
2021/09/05 01:12:14;;;;;;;;;48.00;38.00;;;;;22.53;82.25;101275.19;5102977;27;45346;-59
2021/09/05 01:14:40;;;;;;;;;46.75;37.50;;;;;22.53;81.87;101273.41;5102789;27;45280;-58
2021/09/05 01:17:05;;;;;;;;;42.75;35.00;;;;;22.52;82.07;101268.22;5103028;27;45187;-59
2021/09/05 01:19:34;;;;;;;;;40.75;31.25;;;;;22.50;81.68;101268.31;5102294;27;46411;-59
2021/09/05 01:21:59;;;;;;;;;37.50;29.25;;;;;22.48;81.60;101267.56;5103529;27;45392;-58
2021/09/05 01:24:25;;;;;;;;;34.75;29.75;;;;;22.45;81.40;101276.59;5102384;27;45493;-58
2021/09/05 01:27:00;;;;;;;;;23.50;21.75;;;;;22.42;80.18;101273.28;5102741;27;45241;-57
2021/09/05 01:29:26;;;;;;;;;21.00;19.75;;;;;22.39;79.34;101278.78;5090233;27;46779;-59
2021/09/05 01:31:55;;;;;;;;;22.00;18.25;;;;;22.31;79.50;101281.97;5101149;27;45408;-59
2021/09/05 01:34:23;;;;;;;;;24.00;22.00;;;;;22.25;79.76;101286.84;5102934;27;45273;-59
2021/09/05 01:36:50;;;;;;;;;22.50;21.50;;;;;22.20;79.62;101284.47;5101723;27;45401;-58
2021/09/05 01:39:24;;;;;;;;;19.50;19.00;;;;;22.15;79.68;101282.16;5102628;27;46502;-59
2021/09/05 01:41:50;;;;;;;;;25.00;22.00;;;;;22.10;79.40;101280.78;5102254;27;45456;-60
2021/09/05 01:44:24;;;;;;;;;19.75;19.75;;;;;22.05;79.72;101278.44;5102694;27;45361;-60
2021/09/05 01:46:50;;;;;;;;;21.50;21.00;;;;;22.01;80.00;101281.34;5102415;27;45317;-60
2021/09/05 01:49:16;;;;;;;;;27.75;25.75;;;;;21.98;79.98;101285.03;5102364;27;45259;-60
2021/09/05 01:51:42;;;;;;;;;30.50;28.50;;;;;21.98;80.32;101284.19;5102128;27;45295;-60
2021/09/05 01:54:07;;;;;;;;;29.75;27.00;;;;;21.97;80.61;101290.44;5102554;27;45317;-60
2021/09/05 01:56:34;;;;;;;;;36.75;30.50;;;;;21.97;80.30;101287.78;5102008;27;45548;-59
2021/09/05 01:59:00;;;;;;;;;31.25;25.25;;;;;21.96;80.79;101292.22;5102132;27;46096;-59
2021/09/05 02:01:28;;;;;;;;;28.25;25.00;;;;;21.96;80.09;101294.88;5102062;27;45436;-59
2021/09/05 02:03:54;;;;;;;;;24.50;21.75;;;;;21.96;80.06;101294.03;5102472;27;45321;-59
2021/09/05 02:06:20;;;;;;;;;22.75;19.75;;;;;21.96;80.29;101297.53;5098899;27;45430;-59
2021/09/05 02:08:55;;;;;;;;;23.50;21.50;;;;;21.96;80.08;101292.22;5101754;27;46269;-59
2021/09/05 02:11:20;;;;;;;;;20.75;17.75;;;;;21.97;80.36;101293.09;5101692;27;45436;-59
2021/09/05 02:13:47;;;;;;;;;21.00;17.75;;;;;21.95;79.76;101290.53;5102087;27;45329;-58
2021/09/05 02:16:13;;;;;;;;;19.25;18.25;;;;;21.94;79.75;101288.00;5102020;27;45342;-58
2021/09/05 02:18:38;;;;;;;;;21.75;17.75;;;;;21.87;79.75;101287.56;5101826;27;46679;-59
2021/09/05 02:21:04;;;;;;;;;20.25;18.00;;;;;21.83;80.12;101289.56;5102061;27;45443;-59
2021/09/05 02:23:29;;;;;;;;;18.00;17.00;;;;;21.78;79.94;101286.34;5102332;27;45289;-58
2021/09/05 02:25:55;;;;;;;;;18.50;18.50;;;;;21.79;80.26;101289.84;5101544;27;45417;-59
2021/09/05 02:28:20;;;;;;;;;19.25;18.00;;;;;21.78;79.95;101288.16;5101604;27;45957;-58
2021/09/05 02:30:45;;;;;;;;;20.00;16.25;;;;;21.75;80.16;101293.66;5101636;27;45450;-58
2021/09/05 02:33:11;;;;;;;;;20.00;17.75;;;;;21.76;80.30;101285.59;5102044;27;45272;-58
2021/09/05 02:35:39;;;;;;;;;22.75;19.00;;;;;21.79;80.60;101284.56;5082748;27;45482;-59
2021/09/05 02:38:05;;;;;;;;;16.50;16.50;;;;;21.82;80.24;101287.00;5101619;27;46857;-58
2021/09/05 02:40:30;;;;;;;;;18.25;18.00;;;;;21.83;80.30;101286.94;5082756;27;45469;-59
2021/09/05 02:42:55;;;;;;;;;14.00;14.00;;;;;21.84;79.92;101290.41;5101822;27;45323;-58
2021/09/05 02:45:23;;;;;;;;;17.75;14.75;;;;;21.84;79.98;101290.41;5101157;27;45363;-58
2021/09/05 02:47:49;;;;;;;;;22.50;18.00;;;;;21.83;80.37;101286.94;5100517;27;46396;-58
2021/09/05 02:50:14;;;;;;;;;19.25;16.75;;;;;21.85;80.01;101281.53;5101181;27;45306;-59
2021/09/05 02:52:39;;;;;;;;;17.75;16.75;;;;;21.82;79.83;101282.59;5101643;27;45282;-59
2021/09/05 02:55:08;;;;;;;;;22.25;17.25;;;;;21.84;80.22;101279.84;5101308;27;45607;-60
2021/09/05 02:57:35;;;;;;;;;16.25;16.00;;;;;21.85;80.13;101281.53;5101321;27;46427;-60
2021/09/05 03:00:00;;;;;;;;;19.00;17.00;;;;;21.88;80.04;101288.41;5101144;27;45628;-61
2021/09/05 03:02:28;;;;;;;;;20.75;18.00;;;;;21.86;79.96;101281.44;5101533;27;45321;-59
2021/09/05 03:04:54;;;;;;;;;18.50;16.25;;;;;21.89;79.91;101285.66;5101107;27;45244;-59
2021/09/05 03:07:19;;;;;;;;;17.00;16.00;;;;;21.89;79.80;101293.59;5100863;27;46104;-59
2021/09/05 03:09:45;;;;;;;;;19.25;17.25;;;;;21.89;79.87;101287.47;5101051;27;45211;-59
2021/09/05 03:12:10;;;;;;;;;18.25;14.75;;;;;21.85;79.71;101286.81;5101216;27;45285;-58
2021/09/05 03:14:35;;;;;;;;;17.75;16.50;;;;;21.88;79.85;101278.66;5100906;27;45267;-58
2021/09/05 03:17:04;;;;;;;;;19.25;18.25;;;;;21.90;79.74;101287.34;5100982;27;46137;-59
2021/09/05 03:19:29;;;;;;;;;18.25;17.25;;;;;21.90;79.81;101283.84;5100605;27;45762;-58
2021/09/05 03:21:54;;;;;;;;;21.75;18.75;;;;;21.88;79.77;101286.63;5101760;27;45443;-58
2021/09/05 03:24:20;;;;;;;;;17.75;17.75;;;;;21.84;79.56;101285.97;5100642;27;45300;-59
2021/09/05 03:26:45;;;;;;;;;19.75;17.50;;;;;21.83;79.76;101288.72;5100656;27;46437;-58
2021/09/05 03:29:10;;;;;;;;;20.75;18.75;;;;;21.84;79.75;101293.06;5100484;27;45357;-58
2021/09/05 03:31:36;;;;;;;;;21.50;17.00;;;;;21.80;79.44;101287.09;5101151;27;45802;-58
2021/09/05 03:34:02;;;;;;;;;20.00;19.25;;;;;21.78;79.89;101286.34;5082328;27;45543;-58
2021/09/05 03:36:27;;;;;;;;;19.25;19.25;;;;;21.78;80.04;101282.84;5100730;27;45342;-58
2021/09/05 03:38:56;;;;;;;;;20.75;14.75;;;;;21.78;79.81;101280.22;5100542;27;45475;-58
2021/09/05 03:41:21;;;;;;;;;21.75;18.25;;;;;21.77;80.18;101281.16;5083220;27;45315;-57
2021/09/05 03:43:49;;;;;;;;;20.75;18.75;;;;;21.73;80.04;101283.16;5100373;27;45141;-57
2021/09/05 03:46:15;;;;;;;;;21.50;18.50;;;;;21.71;79.97;101276.28;5100683;27;46398;-57
2021/09/05 03:48:40;;;;;;;;;22.00;22.00;;;;;21.70;80.01;101272.78;5100396;27;45281;-57
2021/09/05 03:51:06;;;;;;;;;30.50;26.25;;;;;21.69;79.86;101272.91;5100747;27;45255;-57
2021/09/05 03:53:32;;;;;;;;;39.75;33.25;;;;;21.67;80.27;101282.72;5100426;27;45542;-58
2021/09/05 03:55:58;;;;;;;;;46.50;37.50;;;;;21.67;80.29;101278.28;5100384;27;46432;-57
2021/09/05 03:58:23;;;;;;;;;53.75;43.00;;;;;21.65;80.41;101271.41;5100079;27;45307;-57
2021/09/05 04:00:48;;;;;;;;;56.75;45.00;;;;;21.63;80.41;101279.44;5100153;27;45319;-59
2021/09/05 04:03:14;;;;;;;;;59.00;47.50;;;;;21.59;80.36;101274.44;5100368;27;45796;-59
2021/09/05 04:05:40;;;;;;;;;57.25;45.25;;;;;21.63;80.56;101281.25;5100069;27;46284;-59
2021/09/05 04:10:39;;;;;;;;;58.50;46.50;;;;;21.61;80.37;101283.09;5100389;27;45348;-59
2021/09/05 04:13:10;;;;;;;;;63.75;49.50;;;;;21.60;80.30;101279.63;5099641;27;45447;-59
2021/09/05 04:15:39;;;;;;;;;61.25;48.25;;;;;21.60;80.46;101286.69;5100264;27;45330;-59
2021/09/05 04:18:04;;;;;;;;;62.00;49.00;;;;;21.56;80.52;101288.69;5100176;27;45219;-59
2021/09/05 04:20:30;;;;;;;;;64.75;51.25;;;;;21.55;80.68;101287.00;5100303;27;45144;-58
2021/09/05 04:22:55;;;;;;;;;71.00;54.00;;;;;21.54;80.58;101291.44;5100106;27;45446;-58
2021/09/05 04:25:21;;;;;;;;;66.50;51.50;;;;;21.51;80.46;101290.81;5099595;27;46563;-59
2021/09/05 04:27:49;;;;;;;;;57.25;44.75;;;;;21.51;80.60;101291.66;5099906;27;45227;-59
2021/09/05 04:30:14;;;;;;;;;62.00;47.75;;;;;21.49;80.69;101284.78;5100003;27;45491;-59
2021/09/05 04:32:40;;;;;;;;;62.00;48.25;;;;;21.47;80.91;101292.81;5100170;27;45636;-59
2021/09/05 04:35:07;;;;;;;;;61.75;47.50;;;;;21.45;80.93;101288.56;5099537;27;45758;-59
2021/09/05 04:37:33;;;;;;;;;52.75;41.75;;;;;21.42;80.77;101300.16;5100069;27;45398;-60
2021/09/05 04:39:58;;;;;;;;;53.25;44.00;;;;;21.37;80.77;101293.47;5100006;27;45335;-60
2021/09/05 04:42:24;;;;;;;;;47.50;38.25;;;;;21.37;81.07;101304.91;5099805;27;45216;-58
2021/09/05 04:44:52;;;;;;;;;50.25;39.00;;;;;21.35;80.89;101298.00;5099392;27;45342;-59
2021/09/05 04:47:19;;;;;;;;;46.50;38.25;;;;;21.26;80.96;101299.47;5098551;27;45288;-59
2021/09/05 04:49:44;;;;;;;;;51.50;41.25;;;;;21.28;81.75;101307.28;5099540;27;45408;-57
2021/09/05 04:52:09;;;;;;;;;49.25;38.25;;;;;21.25;81.00;101309.19;5099934;27;45326;-57
2021/09/05 04:54:35;;;;;;;;;54.75;41.75;;;;;21.27;81.10;101311.72;5099585;27;46516;-59
2021/09/05 04:57:00;;;;;;;;;48.25;38.75;;;;;21.27;81.07;101311.72;5099629;27;45390;-59
2021/09/05 04:59:25;;;;;;;;;49.25;38.00;;;;;21.27;81.09;101313.53;5099379;27;45354;-59
2021/09/05 05:01:53;;;;;;;;;45.25;35.00;;;;;21.28;80.60;101312.56;5099780;27;45338;-59
2021/09/05 05:04:19;;;;;;;;;44.25;35.00;;;;;21.26;81.21;101323.25;5099007;27;46623;-59
2021/09/05 05:06:44;;;;;;;;;31.75;29.75;;;;;21.24;80.87;101325.16;5099272;27;45313;-59
2021/09/05 05:09:19;;;;;;;;;32.75;28.75;;;;;21.27;80.54;101327.59;5099404;27;45226;-58
2021/09/05 05:11:44;;;;;;;;;29.50;28.50;;;;;21.27;80.64;101330.22;5101061;27;45475;-58
2021/09/05 05:14:11;;;;;;;;;28.75;27.75;;;;;21.28;80.73;101339.88;5102557;27;46596;-59
2021/09/05 05:16:37;;;;;;;;;24.25;21.00;;;;;21.24;80.74;101331.28;5103033;27;45418;-59
2021/09/05 05:19:02;;;;;;;;;22.00;20.75;;;;;21.22;80.29;101337.56;5102978;27;45299;-59
2021/09/05 05:21:28;;;;;;;;;26.00;22.75;;;;;21.23;80.67;101347.22;5103113;27;45556;-58
2021/09/05 05:23:57;;;;;;;;;23.00;21.50;;;;;21.24;80.44;101348.94;5084122;27;46544;-60
2021/09/05 05:26:24;;;;;;;;;21.75;20.25;;;;;21.25;80.58;101346.19;5102593;27;45433;-60
2021/09/05 05:28:50;;;;;;;;;24.75;21.50;;;;;21.29;80.19;101348.66;5102480;27;45308;-59
2021/09/05 05:31:15;;;;;;;;;16.75;14.50;;;;;21.29;79.96;101348.66;5102843;27;45646;-61
2021/09/05 05:33:41;;;;;;;;;20.00;19.00;;;;;21.30;79.84;101359.13;5102543;27;45317;-58
2021/09/05 05:36:06;;;;;;;;;21.00;18.25;;;;;21.32;80.07;101351.94;5101671;27;45450;-58
2021/09/05 05:38:31;;;;;;;;;18.75;14.25;;;;;21.32;80.04;101351.94;5102036;27;45419;-58
2021/09/05 05:40:57;;;;;;;;;22.50;21.25;;;;;21.32;79.92;101353.72;5101637;27;45486;-58
2021/09/05 05:43:22;;;;;;;;;23.50;21.00;;;;;21.32;79.78;101349.28;5101652;27;45443;-58
2021/09/05 05:45:48;;;;;;;;;26.00;19.50;;;;;21.29;79.75;101346.00;5101730;27;45554;-58
2021/09/05 05:48:14;;;;;;;;;21.00;19.75;;;;;21.30;79.94;101350.34;5101887;27;45532;-60
2021/09/05 05:50:41;;;;;;;;;21.50;20.25;;;;;21.32;79.98;101359.03;5101501;27;45471;-59
2021/09/05 05:53:07;;;;;;;;;22.75;20.00;;;;;21.35;79.95;101353.53;5101383;27;46227;-59
2021/09/05 05:55:33;;;;;;;;;26.50;19.75;;;;;21.35;79.74;101357.03;5101574;27;45291;-58
2021/09/05 05:57:58;;;;;;;;;21.75;20.50;;;;;21.37;79.57;101359.56;5101779;27;45376;-59
2021/09/05 06:00:25;;;;;;;;;21.50;19.00;;;;;21.41;79.61;101363.72;5084697;27;45540;-59
2021/09/05 06:02:51;;;;;;;;;19.75;19.25;;;;;21.43;79.33;101360.06;5102036;27;45434;-58
2021/09/05 06:05:16;;;;;;;;;21.25;21.25;;;;;21.46;79.41;101369.59;5102021;27;45644;-60
2021/09/05 06:07:42;;;;;;;;;21.25;19.25;;;;;21.49;79.23;101354.38;5101769;27;45294;-60
2021/09/05 06:10:07;;;;;;;;;22.75;21.25;;;;;21.53;79.31;101366.44;5102032;27;45489;-60
2021/09/05 06:12:33;;;;;;;;;25.25;20.75;;;;;21.51;78.93;101372.78;5101921;27;46302;-60
2021/09/05 06:14:58;;;;;;;;;19.25;19.00;;;;;21.51;78.74;101371.00;5102114;27;45511;-58
2021/09/05 06:17:24;;;;;;;;;19.25;19.25;;;;;21.55;78.77;101379.56;5102054;27;45323;-58
2021/09/05 06:19:49;;;;;;;;;21.75;19.25;;;;;21.56;78.77;101379.47;5101869;27;45339;-58
2021/09/05 06:22:14;;;;;;;;;26.25;22.50;;;;;21.58;78.68;101383.81;5101950;27;46455;-59
2021/09/05 06:24:40;;;;;;;;;23.75;21.50;;;;;21.60;78.60;101388.06;5100838;27;45469;-58
2021/09/05 06:27:05;;;;;;;;;22.00;20.50;;;;;21.59;78.79;101396.94;5097744;27;45329;-58
2021/09/05 06:29:30;;;;;;;;;26.50;23.25;;;;;21.62;78.22;101390.63;5100607;27;45648;-58
2021/09/05 06:31:56;;;;;;;;;25.25;23.25;;;;;21.60;78.20;101396.00;5100538;27;47332;-58
2021/09/05 06:34:21;;;;;;;;;22.50;21.75;;;;;21.65;78.38;101406.31;5100138;27;45350;-58
2021/09/05 06:36:46;;;;;;;;;22.00;20.75;;;;;21.60;78.09;101411.88;5101445;27;45272;-58
2021/09/05 06:39:13;;;;;;;;;23.50;21.00;;;;;21.59;78.05;101423.41;5101329;27;45358;-59
2021/09/05 06:41:39;;;;;;;;;23.50;22.25;;;;;21.60;78.01;101422.44;5098004;27;47013;-58
2021/09/05 06:44:04;;;;;;;;;27.75;21.50;;;;;21.58;78.01;101420.84;5101330;27;45354;-57
2021/09/05 06:46:29;;;;;;;;;20.00;19.00;;;;;21.61;78.10;101424.16;5101362;27;45551;-57
2021/09/05 06:48:55;;;;;;;;;23.00;22.00;;;;;21.64;77.96;101423.97;5101071;27;45267;-59
2021/09/05 06:51:20;;;;;;;;;22.75;19.50;;;;;21.65;77.71;101428.31;5100854;27;45307;-59
2021/09/05 06:53:45;;;;;;;;;24.25;23.50;;;;;21.68;77.61;101432.56;5101585;27;45362;-58
2021/09/05 06:56:11;;;;;;;;;27.75;23.25;;;;;21.71;77.67;101429.72;5100974;27;45438;-58
2021/09/05 06:58:36;;;;;;;;;20.00;20.00;;;;;21.74;77.46;101429.53;5100909;27;45286;-58
2021/09/05 07:01:03;;;;;;;;;28.75;24.00;;;;;21.79;77.20;101435.38;5101020;27;45313;-58
2021/09/05 07:03:28;;;;;;;;;20.50;19.75;;;;;21.83;77.11;101437.75;5101395;27;45720;-59
2021/09/05 07:05:54;;;;;;;;;22.00;20.00;;;;;21.85;76.87;101445.59;5100678;27;45365;-58
2021/09/05 07:08:20;;;;;;;;;26.00;20.25;;;;;21.86;77.05;101448.13;5100935;27;45526;-59
2021/09/05 07:10:45;;;;;;;;;24.25;20.00;;;;;21.96;76.49;101448.38;5100515;27;45588;-57
2021/09/05 07:13:10;;;;;;;;;22.25;20.25;;;;;22.02;75.98;101453.28;5100600;27;46354;-59
2021/09/05 07:15:36;;;;;;;;;27.50;22.50;;;;;22.05;76.17;101453.13;5101173;27;45353;-62
2021/09/05 07:18:03;;;;;;;;;24.75;22.50;;;;;22.03;76.21;101436.47;5101017;27;45586;-60
2021/09/05 07:20:28;;;;;;;;;22.50;20.25;;;;;22.15;75.68;101438.34;5101198;27;46574;-60
2021/09/05 07:22:55;;;;;;;;;23.50;20.25;;;;;22.20;75.29;101439.84;5100924;27;45411;-59
2021/09/05 07:25:21;;;;;;;;;20.50;19.00;;;;;22.22;75.52;101432.66;5100818;27;45242;-58
2021/09/05 07:27:47;;;;;;;;;23.25;17.50;;;;;22.35;74.64;101439.69;5100772;27;45300;-59
2021/09/05 07:30:13;;;;;;;;;23.25;21.75;;;;;22.39;74.22;101443.84;5100684;27;46492;-57
2021/09/05 07:32:39;;;;;;;;;22.25;21.25;;;;;22.40;74.30;101439.38;5100645;27;45432;-62
2021/09/05 07:35:06;;;;;;;;;27.25;20.50;;;;;22.46;74.10;101441.66;5099820;27;45473;-60
2021/09/05 07:37:31;;;;;;;;;24.50;23.75;;;;;22.53;73.53;101456.19;5100963;27;45327;-58
2021/09/05 07:39:57;;;;;;;;;23.25;21.00;;;;;22.60;73.26;101457.47;5100383;27;46602;-65
2021/09/05 07:42:22;;;;;;;;;20.50;19.00;;;;;22.65;73.49;101455.38;5100766;27;45409;-62
2021/09/05 07:44:47;;;;;;;;;26.25;24.50;;;;;22.74;73.36;101454.75;5100405;27;45353;-62
2021/09/05 07:47:13;;;;;;;;;23.75;19.75;;;;;22.87;72.64;101469.88;5100747;27;45338;-58
2021/09/05 07:49:38;;;;;;;;;24.25;22.50;;;;;22.97;72.09;101462.97;5099345;27;46273;-63
2021/09/05 07:52:04;;;;;;;;;29.75;23.75;;;;;23.09;72.04;101466.59;5100419;27;45243;-61
2021/09/05 07:54:29;;;;;;;;;23.50;21.50;;;;;23.21;71.90;101466.59;5100474;27;45324;-65
2021/09/05 07:56:54;;;;;;;;;25.00;22.00;;;;;23.32;71.17;101474.69;5081825;27;45547;-59
2021/09/05 07:59:20;;;;;;;;;20.25;17.25;;;;;23.43;71.07;101478.41;5081543;27;46963;-59
2021/09/05 08:01:45;;;;;;;;;26.25;21.25;;;;;23.45;70.62;101477.34;5100259;27;45193;-58
2021/09/05 08:04:10;;;;;;;;;24.75;22.00;;;;;23.47;70.86;101477.22;5100154;27;45513;-58
2021/09/05 08:06:36;;;;;;;;;20.75;20.75;;;;;23.49;70.52;101481.47;5099635;27;45282;-60
2021/09/05 08:09:02;;;;;;;;;27.00;24.75;;;;;23.54;70.72;101487.28;5099540;27;45247;-60
2021/09/05 08:11:27;;;;;;;;;22.00;18.50;;;;;23.67;70.87;101482.88;5099338;27;45496;-59
2021/09/05 08:13:53;;;;;;;;;29.00;24.50;;;;;23.83;70.08;101489.75;5100062;27;45352;-58
2021/09/05 08:16:18;;;;;;;;;28.00;25.50;;;;;24.00;69.08;101486.72;5099985;27;45191;-58
2021/09/05 08:18:44;;;;;;;;;26.00;25.25;;;;;24.12;69.56;101484.97;5098911;27;46921;-60
2021/09/05 08:21:10;;;;;;;;;24.25;23.75;;;;;24.23;69.85;101493.03;5099733;27;45433;-46
2021/09/05 08:23:37;;;;;;;;;25.75;25.00;;;;;24.33;68.79;101491.41;5099887;27;45369;-50
2021/09/05 08:26:04;;;;;;;;;28.75;27.00;;;;;24.43;68.21;101495.13;5098582;27;45589;-49
2021/09/05 08:28:29;;;;;;;;;27.00;27.00;;;;;24.47;68.22;101496.56;5099332;27;47476;-52
2021/09/05 08:30:55;;;;;;;;;26.25;25.25;;;;;24.53;68.72;101498.78;5099124;27;45398;-51
2021/09/05 08:33:20;;;;;;;;;33.00;28.50;;;;;24.67;68.40;101502.22;5099537;27;45333;-50
2021/09/05 08:35:46;;;;;;;;;30.50;26.00;;;;;24.79;66.60;101509.25;5099172;27;45515;-49
2021/09/05 08:38:12;;;;;;;;;31.50;26.75;;;;;24.85;66.40;101509.66;5099369;27;46169;-51
2021/09/05 08:40:40;;;;;;;;;27.75;26.75;;;;;24.97;66.83;101515.00;5098625;27;45343;-51
2021/09/05 08:43:07;;;;;;;;;30.25;25.50;;;;;24.96;66.11;101514.16;5099918;27;45480;-52
2021/09/05 08:45:33;;;;;;;;;26.75;24.50;;;;;24.86;66.53;101507.84;5099675;27;45303;-52
2021/09/05 08:48:00;;;;;;;;;20.50;19.25;;;;;24.73;67.03;101507.91;5103065;27;45243;-52
2021/09/05 08:50:26;;;;;;;;;28.50;24.50;;;;;24.82;66.62;101509.03;5096380;27;45384;-50
2021/09/05 08:52:51;;;;;;;;;26.50;24.75;;;;;24.91;66.31;101516.31;5103299;27;45230;-52
2021/09/05 08:55:17;;;;;;;;;24.50;22.50;;;;;25.00;66.23;101513.00;5103086;27;45216;-51
2021/09/05 08:57:43;;;;;;;;;27.75;24.25;;;;;25.00;64.78;101514.81;5103015;27;46428;-51
2021/09/05 09:00:09;;;;;;;;;23.00;21.75;;;;;24.97;65.32;101517.66;5103029;27;45424;-53
2021/09/05 09:02:54;;;;;;;;;30.25;25.00;;;;;24.84;65.21;101510.63;5103380;27;45462;-49
2021/09/05 09:05:32;;;;;;;;;26.75;22.50;;;;;24.69;65.48;101517.09;5092865;27;45407;-50
2021/09/05 09:08:00;;;;;;;;;23.00;23.00;;;;;24.57;65.37;101513.53;5102460;27;45494;-53
2021/09/05 09:10:25;;;;;;;;;25.75;24.75;;;;;24.53;65.95;101517.38;5102853;27;45209;-52
2021/09/05 09:12:51;;;;;;;;;27.50;26.00;;;;;24.51;66.52;101519.28;5102937;27;45283;-53
2021/09/05 09:15:31;;;;;;;;;27.00;25.75;;;;;24.62;67.32;101520.31;5102775;27;45665;-49
2021/09/05 09:18:00;;;;;;;;;30.25;25.50;;;;;24.75;66.89;101521.09;5102596;27;46558;-49
2021/09/05 09:20:44;;;;;;;;;23.00;20.50;;;;;24.91;66.80;101523.47;5102956;27;45577;-48
2021/09/05 09:23:17;;;;;;;;;28.00;24.00;;;;;25.08;66.27;101520.41;5092167;27;45232;-48
2021/09/05 09:25:55;;;;;;;;;29.25;26.00;;;;;25.23;65.73;101513.03;5102477;27;45325;-49
2021/09/05 09:28:35;;;;;;;;;26.25;24.75;;;;;25.31;63.88;101519.50;5080605;27;46982;-47
2021/09/05 09:31:13;;;;;;;;;24.75;23.50;;;;;25.44;64.54;101516.75;5099330;27;45858;-63
2021/09/05 09:33:39;;;;;;;;;23.50;21.50;;;;;25.58;63.93;101526.28;5098808;27;45456;-62
2021/09/05 09:36:04;;;;;;;;;28.75;23.00;;;;;25.63;63.59;101526.78;5099195;27;45521;-60
2021/09/05 09:38:31;;;;;;;;;31.00;25.75;;;;;25.69;63.29;101529.84;5099821;27;46066;-59
2021/09/05 09:41:06;;;;;;;;;24.25;23.00;;;;;25.76;62.73;101531.06;5082366;27;45320;-59
2021/09/05 09:43:31;;;;;;;;;26.25;26.25;;;;;25.72;63.38;101526.09;5098921;27;45279;-59
2021/09/05 09:46:12;;;;;;;;;28.25;26.25;;;;;25.81;63.79;101536.00;5100889;27;45165;-64
2021/09/05 09:48:45;;;;;;;;;20.75;17.75;;;;;25.84;61.30;101522.47;5099679;27;46074;-57
2021/09/05 09:51:12;;;;;;;;;26.00;23.50;;;;;25.82;61.93;101521.72;5101201;27;45477;-57
2021/09/05 09:53:40;;;;;;;;;21.00;18.50;;;;;25.90;62.47;101523.78;5102256;27;45576;-57
2021/09/05 09:56:09;;;;;;;;;21.25;20.00;;;;;25.96;62.62;101523.28;5101931;27;45271;-58
2021/09/05 09:58:36;;;;;;;;;25.25;21.50;;;;;26.06;62.19;101525.13;5101165;27;45604;-58
2021/09/05 10:01:02;;;;;;;;;20.75;19.75;;;;;26.17;61.58;101512.72;5100470;27;45476;-57
2021/09/05 10:03:29;;;;;;;;;24.75;23.25;;;;;26.22;61.02;101514.03;5102012;27;45450;-57
2021/09/05 10:05:56;;;;;;;;;26.50;24.50;;;;;26.23;60.76;101513.09;5101467;27;45239;-57
2021/09/05 10:08:22;;;;;;;;;23.25;20.00;;;;;26.29;59.85;101514.41;5100818;27;45415;-58
2021/09/05 10:10:48;;;;;;;;;19.75;19.75;;;;;26.35;60.31;101511.28;5101075;27;45896;-57
2021/09/05 10:13:14;;;;;;;;;28.25;25.00;;;;;26.48;60.30;101516.47;5101755;27;45503;-58
2021/09/05 10:15:40;;;;;;;;;24.00;19.75;;;;;26.51;59.64;101503.72;5101816;27;45445;-57
2021/09/05 10:18:07;;;;;;;;;20.75;19.75;;;;;26.65;59.56;101514.09;5101730;27;46324;-57
2021/09/05 10:20:33;;;;;;;;;21.50;20.25;;;;;26.71;59.53;101503.88;5101953;27;45408;-57
2021/09/05 10:23:04;;;;;;;;;21.25;18.00;;;;;26.75;58.48;101510.66;5101788;27;45441;-58
2021/09/05 10:25:29;;;;;;;;;22.50;21.00;;;;;26.82;57.84;101515.34;5097715;27;45435;-58
2021/09/05 10:27:55;;;;;;;;;21.00;20.50;;;;;26.93;57.84;101509.09;5099921;27;46378;-58
2021/09/05 10:30:21;;;;;;;;;23.50;22.25;;;;;27.03;58.46;101507.41;5099848;27;45551;-58
2021/09/05 10:32:47;;;;;;;;;23.50;19.00;;;;;27.08;56.89;101504.34;5082022;27;45466;-58
2021/09/05 10:35:30;;;;;;;;;21.00;19.50;;;;;27.08;56.83;101499.00;5097164;27;45436;-58
2021/09/05 10:38:07;;;;;;;;;22.00;20.00;;;;;27.16;57.85;101502.69;5097613;27;46350;-58
2021/09/05 10:40:46;;;;;;;;;25.00;21.25;;;;;27.30;57.61;101503.34;5099161;27;45503;-58
2021/09/05 10:43:14;;;;;;;;;17.75;17.75;;;;;27.41;57.18;101508.59;5097492;27;45428;-58
2021/09/05 10:45:42;;;;;;;;;19.00;15.75;;;;;27.49;56.42;101501.63;5097933;27;45515;-58
2021/09/05 10:48:35;;;;;;;;;19.25;17.25;;;;;27.59;55.56;101502.50;5099750;27;45441;-58
2021/09/05 10:51:11;;;;;;;;;16.75;15.50;;;;;27.68;55.58;101500.06;5098159;27;45659;-58
2021/09/05 10:54:07;;;;;;;;;19.25;18.25;;;;;27.79;54.32;101497.28;5099885;27;45424;-58
2021/09/05 10:56:41;;;;;;;;;20.50;17.00;;;;;27.90;54.64;101497.19;5097655;27;45418;-58
2021/09/05 10:59:16;;;;;;;;;20.25;18.00;;;;;27.94;53.52;101490.59;5098008;27;46329;-58
2021/09/05 11:01:47;;;;;;;;;18.25;16.75;;;;;27.86;52.77;101490.44;5099439;27;45671;-58
2021/09/05 11:04:14;;;;;;;;;18.00;17.25;;;;;27.88;53.37;101491.13;5096844;27;45240;-58
2021/09/05 11:07:00;;;;;;;;;17.25;16.25;;;;;27.94;52.02;101482.56;5099366;27;45675;-58
2021/09/05 11:09:25;;;;;;;;;20.00;17.50;;;;;28.02;53.29;101487.22;5095805;27;46382;-58
2021/09/05 11:12:06;;;;;;;;;18.00;16.75;;;;;28.08;52.44;101487.53;5099281;27;45331;-58